CARO2: North Fork Red, OK

Data processed at Sun Apr 30 2017 22:32


All information presented herein is the property of the government of the United States of America and may be revised or deleted at any time without prior notice.
Dissemination of this information without the expressed written consent of the Public Affairs Office, Tulsa District U.S. Army Corps of Engineers is strictly prohibited.
These data are gathered electronically and, as presented, have not undergone any form of quality control. These data are not guaranteed to be valid or correct.
Go to home page.
Go to station list.
Go to station map.

Upstream stations:

Downstream station:
Previous Day
Next Day
Current Day
    
SHEF ID:       CARO2     North Fork Red River near Carter
STATION TYPE:  

               PRECIP     STAGE  RIV-FLOW  BAT-LOAD
                   in        ft       cfs      volt
              Ccp-Rev   Ccp-Rev   Ccp-Rev   Ccp-Rev
(US/Central)
04/30 00:00      0.03      8.09       389     12.57
04/30 01:00      0.01      8.07       384     12.49
04/30 02:00      0.00      8.01       367     12.49
04/30 03:00      0.00      7.93       346     12.41
04/30 04:00      0.00      7.79       312     12.41
04/30 05:00      0.00      7.70       293     12.41
04/30 06:00      0.00      7.58       268     12.33
04/30 07:00      0.02      7.51       255     12.33
04/30 08:00      0.00      7.48       250     12.33
04/30 09:00      0.00      7.44       243     12.57
04/30 10:00      0.00      7.47       248     13.29
04/30 11:00      0.01      7.49       251     13.53
04/30 12:00      0.00      7.54       261     13.37
04/30 13:00      0.00      7.59       270     14.08
04/30 14:00      0.00      7.62       275     13.44
04/30 15:00      0.00      7.61       274     13.37
04/30 16:00      0.00      7.59       270     13.37
04/30 17:00      0.00      7.58       268     13.37
04/30 18:00      0.00      7.52       257     13.29
04/30 19:00      0.00      7.47       248     13.29
04/30 20:00      0.00      7.41       237     13.05
04/30 21:00      0.00      7.37       230     12.57
04/30 22:00      0.00      7.30       218     12.57
04/30 23:00      ----      ----      ----      ----